sensor_id;sensor_type;location;lat;lon;timestamp;pressure;altitude;pressure_sealevel;temperature;humidity
54503;BME280;40411;50.090;21.954;2023-12-20T00:01:38;65267.88;;;8.61;57.90
54503;BME280;40411;50.090;21.954;2023-12-20T00:04:04;65246.53;;;9.20;55.48
54503;BME280;40411;50.090;21.954;2023-12-20T00:06:30;65296.75;;;8.71;57.81
54503;BME280;40411;50.090;21.954;2023-12-20T00:08:56;65323.56;;;8.36;58.73
54503;BME280;40411;50.090;21.954;2023-12-20T00:11:24;65279.59;;;8.65;57.42
54503;BME280;40411;50.090;21.954;2023-12-20T00:13:49;65234.16;;;9.35;56.54
54503;BME280;40411;50.090;21.954;2023-12-20T00:16:15;65195.44;;;9.33;55.90
54503;BME280;40411;50.090;21.954;2023-12-20T00:18:41;65229.19;;;9.11;57.02
54503;BME280;40411;50.090;21.954;2023-12-20T00:21:07;65263.31;;;8.95;57.10
54503;BME280;40411;50.090;21.954;2023-12-20T00:23:32;65245.41;;;8.93;56.99
54503;BME280;40411;50.090;21.954;2023-12-20T00:25:58;65271.16;;;8.76;56.55
54503;BME280;40411;50.090;21.954;2023-12-20T00:28:24;65242.38;;;8.62;57.63
54503;BME280;40411;50.090;21.954;2023-12-20T00:30:50;65229.22;;;9.18;57.02
54503;BME280;40411;50.090;21.954;2023-12-20T00:33:16;65278.09;;;9.11;55.75
54503;BME280;40411;50.090;21.954;2023-12-20T00:35:42;65249.16;;;9.20;55.93
54503;BME280;40411;50.090;21.954;2023-12-20T00:38:07;65216.75;;;9.19;55.89
54503;BME280;40411;50.090;21.954;2023-12-20T00:40:34;65296.13;;;8.82;56.61
54503;BME280;40411;50.090;21.954;2023-12-20T00:43:00;65259.06;;;9.01;56.39
54503;BME280;40411;50.090;21.954;2023-12-20T00:45:26;65246.06;;;9.08;56.45
54503;BME280;40411;50.090;21.954;2023-12-20T00:47:52;65269.59;;;9.15;56.17
54503;BME280;40411;50.090;21.954;2023-12-20T00:50:17;65242.63;;;9.50;54.29
54503;BME280;40411;50.090;21.954;2023-12-20T00:52:43;65199.50;;;9.65;54.42
54503;BME280;40411;50.090;21.954;2023-12-20T00:55:09;65219.16;;;9.50;54.00
54503;BME280;40411;50.090;21.954;2023-12-20T00:57:35;65197.34;;;9.77;53.50
54503;BME280;40411;50.090;21.954;2023-12-20T01:00:01;65195.59;;;9.61;53.93
54503;BME280;40411;50.090;21.954;2023-12-20T01:02:27;65182.13;;;9.97;53.09
54503;BME280;40411;50.090;21.954;2023-12-20T01:04:53;65210.84;;;9.97;52.49
54503;BME280;40411;50.090;21.954;2023-12-20T01:07:18;65320.34;;;8.47;56.67
54503;BME280;40411;50.090;21.954;2023-12-20T01:09:44;65364.22;;;8.31;57.99
54503;BME280;40411;50.090;21.954;2023-12-20T01:12:10;65266.66;;;8.98;57.06
54503;BME280;40411;50.090;21.954;2023-12-20T01:14:36;65316.97;;;8.44;57.25
54503;BME280;40411;50.090;21.954;2023-12-20T01:17:02;65347.09;;;8.13;57.75
54503;BME280;40411;50.090;21.954;2023-12-20T01:19:28;65379.47;;;7.83;58.85
54503;BME280;40411;50.090;21.954;2023-12-20T01:21:54;65257.94;;;9.00;56.26
54503;BME280;40411;50.090;21.954;2023-12-20T01:24:21;65370.97;;;8.37;58.30
54503;BME280;40411;50.090;21.954;2023-12-20T01:26:47;65351.97;;;8.15;58.97
54503;BME280;40411;50.090;21.954;2023-12-20T01:29:13;65358.56;;;7.76;59.53
54503;BME280;40411;50.090;21.954;2023-12-20T01:31:40;65350.09;;;7.99;59.50
54503;BME280;40411;50.090;21.954;2023-12-20T01:34:06;65341.00;;;8.14;59.32
54503;BME280;40411;50.090;21.954;2023-12-20T01:36:32;65349.69;;;8.13;59.08
54503;BME280;40411;50.090;21.954;2023-12-20T01:38:58;65316.88;;;8.37;57.76
54503;BME280;40411;50.090;21.954;2023-12-20T01:41:23;65283.94;;;8.73;56.69
54503;BME280;40411;50.090;21.954;2023-12-20T01:43:49;65303.75;;;8.42;57.77
54503;BME280;40411;50.090;21.954;2023-12-20T01:46:15;65356.47;;;7.88;58.64
54503;BME280;40411;50.090;21.954;2023-12-20T01:48:41;65332.41;;;8.30;57.69
54503;BME280;40411;50.090;21.954;2023-12-20T01:51:07;65272.16;;;9.34;54.94
54503;BME280;40411;50.090;21.954;2023-12-20T01:53:34;65251.03;;;9.50;54.21
54503;BME280;40411;50.090;21.954;2023-12-20T01:56:00;65180.34;;;10.14;51.80
54503;BME280;40411;50.090;21.954;2023-12-20T01:58:27;65176.16;;;9.87;52.69
54503;BME280;40411;50.090;21.954;2023-12-20T02:00:54;65215.34;;;10.08;50.73
54503;BME280;40411;50.090;21.954;2023-12-20T02:03:20;65235.00;;;9.52;52.99
54503;BME280;40411;50.090;21.954;2023-12-20T02:05:47;65200.69;;;10.21;50.25
54503;BME280;40411;50.090;21.954;2023-12-20T02:08:13;65239.63;;;9.45;52.90
54503;BME280;40411;50.090;21.954;2023-12-20T02:10:39;65257.75;;;9.56;52.22
54503;BME280;40411;50.090;21.954;2023-12-20T02:13:06;65289.50;;;8.90;53.81
54503;BME280;40411;50.090;21.954;2023-12-20T02:15:32;65314.00;;;8.65;54.93
54503;BME280;40411;50.090;21.954;2023-12-20T02:17:58;65277.56;;;8.65;56.05
54503;BME280;40411;50.090;21.954;2023-12-20T02:20:24;65307.38;;;8.92;54.42
54503;BME280;40411;50.090;21.954;2023-12-20T02:22:50;65317.53;;;8.45;55.39
54503;BME280;40411;50.090;21.954;2023-12-20T02:25:16;65340.97;;;8.64;55.21
54503;BME280;40411;50.090;21.954;2023-12-20T02:27:42;65323.38;;;8.53;55.31
54503;BME280;40411;50.090;21.954;2023-12-20T02:30:09;65293.06;;;8.51;55.79
54503;BME280;40411;50.090;21.954;2023-12-20T02:32:36;65361.25;;;8.14;56.96
54503;BME280;40411;50.090;21.954;2023-12-20T02:35:01;65363.97;;;8.09;56.38
54503;BME280;40411;50.090;21.954;2023-12-20T02:37:27;65366.97;;;7.65;58.40
54503;BME280;40411;50.090;21.954;2023-12-20T02:39:53;65322.72;;;7.76;57.88
54503;BME280;40411;50.090;21.954;2023-12-20T02:42:19;65368.66;;;7.97;57.14
54503;BME280;40411;50.090;21.954;2023-12-20T02:44:45;65355.69;;;7.85;57.59
54503;BME280;40411;50.090;21.954;2023-12-20T02:47:11;65373.38;;;7.73;57.89
54503;BME280;40411;50.090;21.954;2023-12-20T02:49:36;65411.94;;;7.68;58.84
54503;BME280;40411;50.090;21.954;2023-12-20T02:52:03;65363.94;;;7.59;58.88
54503;BME280;40411;50.090;21.954;2023-12-20T02:54:28;65324.41;;;8.27;56.42
54503;BME280;40411;50.090;21.954;2023-12-20T02:56:54;65300.22;;;8.81;54.96
54503;BME280;40411;50.090;21.954;2023-12-20T02:59:20;65220.03;;;9.74;52.23
54503;BME280;40411;50.090;21.954;2023-12-20T03:01:46;65318.09;;;8.64;54.41
54503;BME280;40411;50.090;21.954;2023-12-20T03:04:12;65285.06;;;8.75;54.76
54503;BME280;40411;50.090;21.954;2023-12-20T03:06:38;65350.28;;;8.32;55.85
54503;BME280;40411;50.090;21.954;2023-12-20T03:09:04;65374.53;;;8.23;56.08
54503;BME280;40411;50.090;21.954;2023-12-20T03:11:31;65313.88;;;8.70;55.13
54503;BME280;40411;50.090;21.954;2023-12-20T03:13:57;65255.59;;;9.09;54.61
54503;BME280;40411;50.090;21.954;2023-12-20T03:16:23;65254.16;;;9.17;54.04
54503;BME280;40411;50.090;21.954;2023-12-20T03:18:49;65249.25;;;9.34;53.03
54503;BME280;40411;50.090;21.954;2023-12-20T03:21:15;65205.81;;;9.59;52.42
54503;BME280;40411;50.090;21.954;2023-12-20T03:23:41;65319.16;;;8.58;54.61
54503;BME280;40411;50.090;21.954;2023-12-20T03:26:08;65365.81;;;8.56;55.19
54503;BME280;40411;50.090;21.954;2023-12-20T03:28:34;65321.00;;;8.24;56.60
54503;BME280;40411;50.090;21.954;2023-12-20T03:31:00;65376.31;;;7.28;59.54
54503;BME280;40411;50.090;21.954;2023-12-20T03:33:28;65362.28;;;7.77;58.86
54503;BME280;40411;50.090;21.954;2023-12-20T03:35:54;65328.75;;;8.17;56.83
54503;BME280;40411;50.090;21.954;2023-12-20T03:38:20;65349.00;;;8.17;55.99
54503;BME280;40411;50.090;21.954;2023-12-20T03:40:46;65345.75;;;8.09;56.82
54503;BME280;40411;50.090;21.954;2023-12-20T03:43:12;65355.69;;;7.85;57.83
54503;BME280;40411;50.090;21.954;2023-12-20T03:45:38;65297.41;;;8.60;55.75
54503;BME280;40411;50.090;21.954;2023-12-20T03:48:04;65419.38;;;7.27;59.43
54503;BME280;40411;50.090;21.954;2023-12-20T03:50:30;65422.34;;;6.66;61.94
54503;BME280;40411;50.090;21.954;2023-12-20T03:52:56;65445.25;;;6.61;62.17
54503;BME280;40411;50.090;21.954;2023-12-20T03:55:22;65440.75;;;6.69;62.25
54503;BME280;40411;50.090;21.954;2023-12-20T03:57:48;65372.63;;;7.15;61.26
54503;BME280;40411;50.090;21.954;2023-12-20T04:00:14;65386.84;;;7.24;60.66
54503;BME280;40411;50.090;21.954;2023-12-20T04:02:41;65334.22;;;7.89;57.85
54503;BME280;40411;50.090;21.954;2023-12-20T04:05:08;65411.03;;;7.03;60.94
54503;BME280;40411;50.090;21.954;2023-12-20T04:07:35;65391.97;;;6.93;61.82
54503;BME280;40411;50.090;21.954;2023-12-20T04:10:01;65399.63;;;6.98;61.21
54503;BME280;40411;50.090;21.954;2023-12-20T04:12:29;65407.44;;;6.62;62.03
54503;BME280;40411;50.090;21.954;2023-12-20T04:14:56;65390.56;;;7.13;60.99
54503;BME280;40411;50.090;21.954;2023-12-20T04:17:22;65418.69;;;6.25;64.49
54503;BME280;40411;50.090;21.954;2023-12-20T04:19:51;65424.81;;;6.59;62.89
54503;BME280;40411;50.090;21.954;2023-12-20T04:22:18;65430.88;;;6.34;64.38
54503;BME280;40411;50.090;21.954;2023-12-20T04:24:44;65394.22;;;6.60;62.98
54503;BME280;40411;50.090;21.954;2023-12-20T04:27:11;65389.63;;;6.60;62.89
54503;BME280;40411;50.090;21.954;2023-12-20T04:29:37;65401.91;;;6.88;62.19
54503;BME280;40411;50.090;21.954;2023-12-20T04:32:03;65404.47;;;7.11;61.40
54503;BME280;40411;50.090;21.954;2023-12-20T04:34:29;65359.16;;;7.65;59.32
54503;BME280;40411;50.090;21.954;2023-12-20T04:36:55;65337.91;;;8.21;57.19
54503;BME280;40411;50.090;21.954;2023-12-20T04:39:21;65357.06;;;7.89;57.12
54503;BME280;40411;50.090;21.954;2023-12-20T04:41:47;65349.97;;;8.03;57.32
54503;BME280;40411;50.090;21.954;2023-12-20T04:44:16;65316.97;;;8.63;55.51
54503;BME280;40411;50.090;21.954;2023-12-20T04:46:41;65314.28;;;8.75;54.64
54503;BME280;40411;50.090;21.954;2023-12-20T04:49:07;65273.03;;;8.80;54.41
54503;BME280;40411;50.090;21.954;2023-12-20T04:51:33;65360.69;;;8.32;56.30
54503;BME280;40411;50.090;21.954;2023-12-20T04:54:01;65346.94;;;8.67;54.26
54503;BME280;40411;50.090;21.954;2023-12-20T04:56:27;65362.16;;;8.62;54.30
54503;BME280;40411;50.090;21.954;2023-12-20T04:58:53;65349.50;;;8.29;55.04
54503;BME280;40411;50.090;21.954;2023-12-20T05:01:18;65227.19;;;9.52;52.05
54503;BME280;40411;50.090;21.954;2023-12-20T05:03:44;65263.69;;;9.85;49.79
54503;BME280;40411;50.090;21.954;2023-12-20T05:06:10;65327.13;;;8.99;52.36
54503;BME280;40411;50.090;21.954;2023-12-20T05:08:36;65342.72;;;8.91;52.80
54503;BME280;40411;50.090;21.954;2023-12-20T05:11:02;65318.84;;;8.86;53.39
54503;BME280;40411;50.090;21.954;2023-12-20T05:13:29;65306.31;;;8.99;53.09
54503;BME280;40411;50.090;21.954;2023-12-20T05:15:54;65309.66;;;9.47;51.89
54503;BME280;40411;50.090;21.954;2023-12-20T05:18:21;65303.69;;;8.99;52.63
54503;BME280;40411;50.090;21.954;2023-12-20T05:20:47;65299.94;;;9.43;50.89
54503;BME280;40411;50.090;21.954;2023-12-20T05:23:13;65298.75;;;9.34;51.43
54503;BME280;40411;50.090;21.954;2023-12-20T05:25:39;65293.13;;;9.03;51.57
54503;BME280;40411;50.090;21.954;2023-12-20T05:28:05;65343.72;;;8.59;53.92
54503;BME280;40411;50.090;21.954;2023-12-20T05:30:31;65242.28;;;9.85;51.04
54503;BME280;40411;50.090;21.954;2023-12-20T05:32:57;65250.09;;;9.52;50.46
54503;BME280;40411;50.090;21.954;2023-12-20T05:35:23;65167.69;;;10.26;48.78
54503;BME280;40411;50.090;21.954;2023-12-20T05:37:49;65287.00;;;9.05;51.61
54503;BME280;40411;50.090;21.954;2023-12-20T05:40:15;65326.25;;;8.62;54.01
54503;BME280;40411;50.090;21.954;2023-12-20T05:42:41;65263.44;;;9.43;51.91
54503;BME280;40411;50.090;21.954;2023-12-20T05:45:07;65279.22;;;9.64;50.87
54503;BME280;40411;50.090;21.954;2023-12-20T05:47:33;65324.72;;;9.20;51.90
54503;BME280;40411;50.090;21.954;2023-12-20T05:49:59;65241.38;;;9.94;50.47
54503;BME280;40411;50.090;21.954;2023-12-20T05:52:25;65188.75;;;10.22;48.88
54503;BME280;40411;50.090;21.954;2023-12-20T05:54:51;65244.81;;;10.11;49.80
54503;BME280;40411;50.090;21.954;2023-12-20T05:57:17;65337.84;;;9.08;52.81
54503;BME280;40411;50.090;21.954;2023-12-20T05:59:42;65353.41;;;8.44;54.78
54503;BME280;40411;50.090;21.954;2023-12-20T06:02:08;65352.38;;;8.20;55.58
54503;BME280;40411;50.090;21.954;2023-12-20T06:04:34;65378.72;;;7.99;56.35
54503;BME280;40411;50.090;21.954;2023-12-20T06:07:00;65323.00;;;8.73;53.71
54503;BME280;40411;50.090;21.954;2023-12-20T06:09:28;65309.47;;;8.99;52.22
54503;BME280;40411;50.090;21.954;2023-12-20T06:11:54;65227.47;;;9.69;50.36
54503;BME280;40411;50.090;21.954;2023-12-20T06:14:20;65226.22;;;9.80;49.90
54503;BME280;40411;50.090;21.954;2023-12-20T06:16:46;65303.91;;;9.27;50.52
54503;BME280;40411;50.090;21.954;2023-12-20T06:19:12;65242.84;;;9.52;50.51
54503;BME280;40411;50.090;21.954;2023-12-20T06:21:38;65229.78;;;9.52;51.00
54503;BME280;40411;50.090;21.954;2023-12-20T06:24:04;65303.72;;;8.80;53.02
54503;BME280;40411;50.090;21.954;2023-12-20T06:26:30;65204.00;;;9.69;51.89
54503;BME280;40411;50.090;21.954;2023-12-20T06:28:55;65219.63;;;9.69;52.01
54503;BME280;40411;50.090;21.954;2023-12-20T06:31:21;65181.66;;;10.25;49.20
54503;BME280;40411;50.090;21.954;2023-12-20T06:33:47;65102.91;;;10.74;47.99
54503;BME280;40411;50.090;21.954;2023-12-20T06:36:15;65303.03;;;8.84;52.25
54503;BME280;40411;50.090;21.954;2023-12-20T06:38:41;65302.78;;;9.00;52.14
54503;BME280;40411;50.090;21.954;2023-12-20T06:41:08;65278.50;;;8.64;53.59
54503;BME280;40411;50.090;21.954;2023-12-20T06:43:33;65285.38;;;8.65;53.86
54503;BME280;40411;50.090;21.954;2023-12-20T06:46:02;65263.75;;;8.81;52.32
54503;BME280;40411;50.090;21.954;2023-12-20T06:48:28;65292.81;;;8.86;52.91
54503;BME280;40411;50.090;21.954;2023-12-20T06:50:54;65259.88;;;9.11;53.00
54503;BME280;40411;50.090;21.954;2023-12-20T06:53:19;65277.25;;;8.75;52.78
54503;BME280;40411;50.090;21.954;2023-12-20T06:55:46;65326.09;;;8.29;54.70
54503;BME280;40411;50.090;21.954;2023-12-20T06:58:11;65285.16;;;8.63;54.41
54503;BME280;40411;50.090;21.954;2023-12-20T07:00:37;65284.31;;;9.43;52.67
54503;BME280;40411;50.090;21.954;2023-12-20T07:03:03;65292.91;;;8.56;53.97
54503;BME280;40411;50.090;21.954;2023-12-20T07:05:29;65328.69;;;8.29;55.04
54503;BME280;40411;50.090;21.954;2023-12-20T07:07:55;65288.97;;;8.52;54.48
54503;BME280;40411;50.090;21.954;2023-12-20T07:10:21;65248.97;;;9.25;52.02
54503;BME280;40411;50.090;21.954;2023-12-20T07:12:47;65329.41;;;8.25;54.20
54503;BME280;40411;50.090;21.954;2023-12-20T07:15:14;65313.94;;;8.58;54.16
54503;BME280;40411;50.090;21.954;2023-12-20T07:17:40;65122.47;;;10.49;48.98
54503;BME280;40411;50.090;21.954;2023-12-20T07:20:06;65223.47;;;9.92;49.31
54503;BME280;40411;50.090;21.954;2023-12-20T07:22:35;65086.47;;;10.57;48.21
54503;BME280;40411;50.090;21.954;2023-12-20T07:25:01;65167.81;;;10.69;47.71
54503;BME280;40411;50.090;21.954;2023-12-20T07:27:27;65203.44;;;10.16;48.50
54503;BME280;40411;50.090;21.954;2023-12-20T07:29:53;65292.22;;;9.05;52.14
54503;BME280;40411;50.090;21.954;2023-12-20T07:32:18;65264.09;;;9.05;51.79
54503;BME280;40411;50.090;21.954;2023-12-20T07:34:44;65218.59;;;9.82;50.29
54503;BME280;40411;50.090;21.954;2023-12-20T07:37:10;65244.16;;;9.56;51.29
54503;BME280;40411;50.090;21.954;2023-12-20T07:39:38;65206.06;;;10.09;49.78
54503;BME280;40411;50.090;21.954;2023-12-20T07:42:05;65218.00;;;10.15;49.36
54503;BME280;40411;50.090;21.954;2023-12-20T07:44:31;65117.63;;;10.47;48.64
54503;BME280;40411;50.090;21.954;2023-12-20T07:46:57;65138.69;;;10.57;48.35
54503;BME280;40411;50.090;21.954;2023-12-20T07:49:24;65187.41;;;10.11;49.34
54503;BME280;40411;50.090;21.954;2023-12-20T07:51:50;65216.81;;;10.00;49.75
54503;BME280;40411;50.090;21.954;2023-12-20T07:54:16;65190.38;;;10.09;49.53
54503;BME280;40411;50.090;21.954;2023-12-20T07:56:42;65170.72;;;10.39;48.66
54503;BME280;40411;50.090;21.954;2023-12-20T07:59:08;65162.59;;;10.69;47.79
54503;BME280;40411;50.090;21.954;2023-12-20T08:01:33;65283.09;;;9.60;50.25
54503;BME280;40411;50.090;21.954;2023-12-20T08:03:59;65242.69;;;9.57;51.66
54503;BME280;40411;50.090;21.954;2023-12-20T08:06:25;65221.38;;;9.45;52.23
54503;BME280;40411;50.090;21.954;2023-12-20T08:08:51;65347.03;;;8.24;55.57
54503;BME280;40411;50.090;21.954;2023-12-20T08:11:16;65252.91;;;8.76;55.13
54503;BME280;40411;50.090;21.954;2023-12-20T08:13:43;65337.56;;;8.23;56.49
54503;BME280;40411;50.090;21.954;2023-12-20T08:16:08;65358.06;;;7.64;59.08
54503;BME280;40411;50.090;21.954;2023-12-20T08:18:34;65281.22;;;8.21;57.79
54503;BME280;40411;50.090;21.954;2023-12-20T08:21:00;65329.69;;;7.85;59.35
54503;BME280;40411;50.090;21.954;2023-12-20T08:23:27;65293.19;;;7.59;60.70
54503;BME280;40411;50.090;21.954;2023-12-20T08:25:53;65242.78;;;8.22;58.51
54503;BME280;40411;50.090;21.954;2023-12-20T08:28:19;65299.22;;;8.19;58.63
54503;BME280;40411;50.090;21.954;2023-12-20T08:30:44;65285.81;;;8.14;59.22
54503;BME280;40411;50.090;21.954;2023-12-20T08:33:10;65296.00;;;8.49;58.57
54503;BME280;40411;50.090;21.954;2023-12-20T08:35:41;65187.09;;;9.06;55.97
54503;BME280;40411;50.090;21.954;2023-12-20T08:38:07;65264.81;;;8.75;55.92
54503;BME280;40411;50.090;21.954;2023-12-20T08:40:32;65169.34;;;9.66;53.80
54503;BME280;40411;50.090;21.954;2023-12-20T08:42:58;65267.09;;;8.58;56.33
54503;BME280;40411;50.090;21.954;2023-12-20T08:45:24;65175.69;;;9.67;53.53
54503;BME280;40411;50.090;21.954;2023-12-20T08:47:50;65183.28;;;9.57;53.79
54503;BME280;40411;50.090;21.954;2023-12-20T08:50:16;65217.03;;;9.69;53.11
54503;BME280;40411;50.090;21.954;2023-12-20T08:52:42;65243.94;;;8.94;55.84
54503;BME280;40411;50.090;21.954;2023-12-20T08:55:08;65177.84;;;9.55;54.10
54503;BME280;40411;50.090;21.954;2023-12-20T08:57:35;65194.63;;;9.56;53.40
54503;BME280;40411;50.090;21.954;2023-12-20T09:00:01;65146.19;;;10.04;52.67
54503;BME280;40411;50.090;21.954;2023-12-20T09:02:27;65088.69;;;10.31;52.01
54503;BME280;40411;50.090;21.954;2023-12-20T09:04:54;65206.25;;;9.71;53.20
54503;BME280;40411;50.090;21.954;2023-12-20T09:07:22;65227.34;;;9.14;54.73
54503;BME280;40411;50.090;21.954;2023-12-20T09:09:48;65222.94;;;9.25;54.08
54503;BME280;40411;50.090;21.954;2023-12-20T09:12:14;65136.81;;;9.84;54.12
54503;BME280;40411;50.090;21.954;2023-12-20T09:14:40;65192.13;;;9.77;52.42
54503;BME280;40411;50.090;21.954;2023-12-20T09:17:06;65191.19;;;9.38;53.92
54503;BME280;40411;50.090;21.954;2023-12-20T09:19:34;65140.09;;;9.66;54.03
54503;BME280;40411;50.090;21.954;2023-12-20T09:22:00;65119.75;;;10.14;51.71
54503;BME280;40411;50.090;21.954;2023-12-20T09:24:26;65145.69;;;10.18;51.29
54503;BME280;40411;50.090;21.954;2023-12-20T09:26:52;65171.94;;;9.66;55.02
54503;BME280;40411;50.090;21.954;2023-12-20T09:29:18;65130.78;;;10.21;52.34
54503;BME280;40411;50.090;21.954;2023-12-20T09:31:44;65157.75;;;10.05;51.51
54503;BME280;40411;50.090;21.954;2023-12-20T09:34:12;65170.78;;;9.58;54.17
54503;BME280;40411;50.090;21.954;2023-12-20T09:36:37;65127.50;;;10.54;51.44
54503;BME280;40411;50.090;21.954;2023-12-20T09:39:06;64973.22;;;11.54;49.07
54503;BME280;40411;50.090;21.954;2023-12-20T09:41:36;64975.50;;;11.42;48.80
54503;BME280;40411;50.090;21.954;2023-12-20T09:44:03;65044.31;;;11.09;49.98
54503;BME280;40411;50.090;21.954;2023-12-20T09:46:32;65019.47;;;11.20;49.44
54503;BME280;40411;50.090;21.954;2023-12-20T09:49:00;65042.81;;;11.10;49.89
54503;BME280;40411;50.090;21.954;2023-12-20T09:51:29;65064.28;;;10.96;50.49
54503;BME280;40411;50.090;21.954;2023-12-20T09:53:55;64966.53;;;11.48;49.60
54503;BME280;40411;50.090;21.954;2023-12-20T09:56:23;65040.78;;;10.82;50.87
54503;BME280;40411;50.090;21.954;2023-12-20T09:58:50;65011.03;;;11.27;50.32
54503;BME280;40411;50.090;21.954;2023-12-20T10:01:17;64932.03;;;11.79;49.35
54503;BME280;40411;50.090;21.954;2023-12-20T10:03:43;65047.69;;;10.84;51.29
54503;BME280;40411;50.090;21.954;2023-12-20T10:06:10;64966.00;;;11.33;50.67
54503;BME280;40411;50.090;21.954;2023-12-20T10:08:35;64905.09;;;11.83;50.34
54503;BME280;40411;50.090;21.954;2023-12-20T10:11:02;64889.69;;;12.02;49.83
54503;BME280;40411;50.090;21.954;2023-12-20T10:13:29;64882.81;;;12.25;48.33
54503;BME280;40411;50.090;21.954;2023-12-20T10:15:55;64969.78;;;11.80;49.90
54503;BME280;40411;50.090;21.954;2023-12-20T10:18:21;64942.97;;;11.55;50.62
54503;BME280;40411;50.090;21.954;2023-12-20T10:20:47;64930.47;;;11.94;49.18
54503;BME280;40411;50.090;21.954;2023-12-20T10:23:15;64964.28;;;11.53;50.06
54503;BME280;40411;50.090;21.954;2023-12-20T10:25:41;64947.50;;;11.38;51.04
54503;BME280;40411;50.090;21.954;2023-12-20T10:28:15;64951.44;;;11.34;51.95
54503;BME280;40411;50.090;21.954;2023-12-20T10:30:45;64922.56;;;11.63;52.06
54503;BME280;40411;50.090;21.954;2023-12-20T10:33:11;64948.81;;;11.41;52.63
54503;BME280;40411;50.090;21.954;2023-12-20T10:35:38;64931.44;;;11.40;52.73
54503;BME280;40411;50.090;21.954;2023-12-20T10:38:05;64884.66;;;11.59;52.87
54503;BME280;40411;50.090;21.954;2023-12-20T10:40:35;64884.34;;;11.47;53.48
54503;BME280;40411;50.090;21.954;2023-12-20T10:43:04;64866.53;;;11.62;52.44
54503;BME280;40411;50.090;21.954;2023-12-20T10:45:31;64876.22;;;12.04;52.07
54503;BME280;40411;50.090;21.954;2023-12-20T10:47:57;64773.66;;;12.21;52.41
54503;BME280;40411;50.090;21.954;2023-12-20T10:50:26;64802.88;;;11.80;53.08
54503;BME280;40411;50.090;21.954;2023-12-20T10:52:54;64915.84;;;11.11;56.00
54503;BME280;40411;50.090;21.954;2023-12-20T10:55:22;64856.94;;;11.75;54.45
54503;BME280;40411;50.090;21.954;2023-12-20T10:57:52;64750.81;;;12.24;53.69
54503;BME280;40411;50.090;21.954;2023-12-20T11:00:21;64794.53;;;11.73;54.68
54503;BME280;40411;50.090;21.954;2023-12-20T11:02:49;64868.66;;;11.47;55.35
54503;BME280;40411;50.090;21.954;2023-12-20T11:05:38;64845.81;;;11.57;55.18
54503;BME280;40411;50.090;21.954;2023-12-20T11:14:08;64842.94;;;11.69;55.88
54503;BME280;40411;50.090;21.954;2023-12-20T11:16:37;64984.25;;;10.73;57.89
54503;BME280;40411;50.090;21.954;2023-12-20T11:19:06;64857.69;;;11.39;57.00
54503;BME280;40411;50.090;21.954;2023-12-20T11:21:33;65026.38;;;10.21;59.95
54503;BME280;40411;50.090;21.954;2023-12-20T11:23:59;65059.94;;;10.23;59.48
54503;BME280;40411;50.090;21.954;2023-12-20T11:26:29;64925.59;;;11.01;58.14
54503;BME280;40411;50.090;21.954;2023-12-20T11:31:55;64950.69;;;10.50;60.20
54503;BME280;40411;50.090;21.954;2023-12-20T11:34:21;64988.38;;;10.37;60.39
54503;BME280;40411;50.090;21.954;2023-12-20T11:36:47;64924.59;;;10.50;61.37
54503;BME280;40411;50.090;21.954;2023-12-20T11:39:20;65034.25;;;10.28;61.01
54503;BME280;40411;50.090;21.954;2023-12-20T11:41:48;64882.56;;;10.76;61.41
54503;BME280;40411;50.090;21.954;2023-12-20T11:44:17;65014.44;;;10.08;62.36
54503;BME280;40411;50.090;21.954;2023-12-20T11:46:44;64971.59;;;10.43;62.42
54503;BME280;40411;50.090;21.954;2023-12-20T11:49:10;64956.28;;;10.26;62.95
54503;BME280;40411;50.090;21.954;2023-12-20T11:51:40;64967.84;;;10.49;62.06
54503;BME280;40411;50.090;21.954;2023-12-20T11:54:07;65023.75;;;9.93;63.95
54503;BME280;40411;50.090;21.954;2023-12-20T11:56:36;64961.50;;;10.26;63.24
54503;BME280;40411;50.090;21.954;2023-12-20T11:59:01;64889.81;;;10.90;62.20
54503;BME280;40411;50.090;21.954;2023-12-20T12:01:27;64877.88;;;10.84;60.82
54503;BME280;40411;50.090;21.954;2023-12-20T12:04:04;65020.06;;;10.20;63.60
54503;BME280;40411;50.090;21.954;2023-12-20T12:06:30;64907.81;;;10.42;63.23
54503;BME280;40411;50.090;21.954;2023-12-20T12:08:56;65056.50;;;9.70;63.69
54503;BME280;40411;50.090;21.954;2023-12-20T12:11:22;64967.88;;;10.27;63.03
54503;BME280;40411;50.090;21.954;2023-12-20T12:13:48;64985.56;;;10.05;63.30
54503;BME280;40411;50.090;21.954;2023-12-20T12:16:19;64969.91;;;10.05;64.04
54503;BME280;40411;50.090;21.954;2023-12-20T12:18:45;64979.97;;;10.15;63.62
54503;BME280;40411;50.090;21.954;2023-12-20T12:21:19;64966.00;;;10.09;64.14
54503;BME280;40411;50.090;21.954;2023-12-20T12:23:46;65117.34;;;9.14;67.92
54503;BME280;40411;50.090;21.954;2023-12-20T12:26:12;64922.00;;;10.07;64.93
54503;BME280;40411;50.090;21.954;2023-12-20T12:28:40;64966.91;;;10.07;65.37
54503;BME280;40411;50.090;21.954;2023-12-20T12:31:07;65028.16;;;9.61;67.27
54503;BME280;40411;50.090;21.954;2023-12-20T12:33:34;65031.13;;;9.59;67.00
54503;BME280;40411;50.090;21.954;2023-12-20T12:36:01;64942.13;;;10.18;65.77
54503;BME280;40411;50.090;21.954;2023-12-20T12:38:27;64982.38;;;9.91;66.04
54503;BME280;40411;50.090;21.954;2023-12-20T12:40:54;64896.59;;;10.67;64.02
54503;BME280;40411;50.090;21.954;2023-12-20T12:43:20;64873.53;;;11.04;62.16
54503;BME280;40411;50.090;21.954;2023-12-20T12:45:48;64876.44;;;10.70;63.31
54503;BME280;40411;50.090;21.954;2023-12-20T12:48:14;64890.59;;;10.79;62.07
54503;BME280;40411;50.090;21.954;2023-12-20T12:50:40;64931.28;;;10.70;62.38
54503;BME280;40411;50.090;21.954;2023-12-20T12:53:06;64902.34;;;10.75;62.56
54503;BME280;40411;50.090;21.954;2023-12-20T12:55:34;64860.72;;;10.85;62.06
54503;BME280;40411;50.090;21.954;2023-12-20T12:58:00;64895.63;;;10.76;62.64
54503;BME280;40411;50.090;21.954;2023-12-20T13:00:41;64976.06;;;10.18;64.42
54503;BME280;40411;50.090;21.954;2023-12-20T13:03:07;64976.59;;;10.19;64.13